sensor_id;sensor_type;location;lat;lon;timestamp;pressure;altitude;pressure_sealevel;temperature;humidity
62201;BME280;48197;42.732;27.192;2023-02-18T09:37:10;100155.78;;;10.50;53.52
62201;BME280;48197;42.732;27.192;2023-02-18T10:11:23;100103.00;;;11.64;48.94
62201;BME280;48197;42.732;27.192;2023-02-18T10:13:53;100114.41;;;11.81;48.67
62201;BME280;48197;42.732;27.192;2023-02-18T10:16:21;100115.16;;;11.85;48.29
62201;BME280;48197;42.732;27.192;2023-02-18T10:18:49;100104.59;;;12.36;47.95
62201;BME280;48197;42.732;27.192;2023-02-18T10:21:27;100096.63;;;12.86;46.69
62201;BME280;48197;42.732;27.192;2023-02-18T10:23:59;100104.75;;;12.66;45.89
62201;BME280;48197;42.732;27.192;2023-02-18T10:26:28;100091.38;;;12.54;45.63
62201;BME280;48197;42.732;27.192;2023-02-18T10:28:55;100094.63;;;12.45;46.02
62201;BME280;48197;42.732;27.192;2023-02-18T10:31:24;100091.53;;;12.33;46.10
62201;BME280;48197;42.732;27.192;2023-02-18T10:36:25;100086.97;;;12.08;47.71
62201;BME280;48197;42.732;27.192;2023-02-18T10:41:30;100073.84;;;12.19;47.88
62201;BME280;48197;42.732;27.192;2023-02-18T10:50:00;100056.13;;;12.02;49.23
62201;BME280;48197;42.732;27.192;2023-02-18T10:52:43;100067.31;;;11.84;49.94
62201;BME280;48197;42.732;27.192;2023-02-18T10:55:15;100056.63;;;11.87;49.82
62201;BME280;48197;42.732;27.192;2023-02-18T10:57:47;100053.44;;;11.95;49.88
62201;BME280;48197;42.732;27.192;2023-02-18T11:00:15;100053.31;;;12.10;49.41
62201;BME280;48197;42.732;27.192;2023-02-18T11:02:42;100055.22;;;12.20;49.06
62201;BME280;48197;42.732;27.192;2023-02-18T11:05:26;100053.91;;;12.35;49.04
62201;BME280;48197;42.732;27.192;2023-02-18T11:07:53;100043.81;;;12.59;48.64
62201;BME280;48197;42.732;27.192;2023-02-18T11:12:49;100041.78;;;12.63;48.39
62201;BME280;48197;42.732;27.192;2023-02-18T11:15:18;100041.81;;;12.60;48.83
62201;BME280;48197;42.732;27.192;2023-02-18T11:20:59;100031.22;;;12.48;48.90
62201;BME280;48197;42.732;27.192;2023-02-18T11:23:26;100022.59;;;12.42;49.16
62201;BME280;48197;42.732;27.192;2023-02-18T11:25:59;100024.34;;;12.21;49.40
62201;BME280;48197;42.732;27.192;2023-02-18T11:28:39;100021.16;;;12.23;49.94
62201;BME280;48197;42.732;27.192;2023-02-18T11:31:07;100012.88;;;12.16;48.85
62201;BME280;48197;42.732;27.192;2023-02-18T11:33:38;100013.03;;;11.98;49.72
62201;BME280;48197;42.732;27.192;2023-02-18T11:36:50;100011.91;;;11.88;50.60
62201;BME280;48197;42.732;27.192;2023-02-18T11:38:56;100007.19;;;11.89;50.64
62201;BME280;48197;42.732;27.192;2023-02-18T11:49:57;100001.50;;;12.07;49.97
62201;BME280;48197;42.732;27.192;2023-02-18T11:52:27;100001.50;;;12.03;49.66
62201;BME280;48197;42.732;27.192;2023-02-18T11:55:07;99983.75;;;11.97;49.81
62201;BME280;48197;42.732;27.192;2023-02-18T12:03:29;99986.88;;;12.02;48.91
62201;BME280;48197;42.732;27.192;2023-02-18T12:06:04;99986.44;;;12.08;48.58
62201;BME280;48197;42.732;27.192;2023-02-18T12:08:39;99981.66;;;12.12;48.99
62201;BME280;48197;42.732;27.192;2023-02-18T12:11:15;99984.78;;;12.17;48.68
62201;BME280;48197;42.732;27.192;2023-02-18T12:13:47;99985.91;;;12.27;48.65
62201;BME280;48197;42.732;27.192;2023-02-18T12:16:22;99970.81;;;12.32;48.21
62201;BME280;48197;42.732;27.192;2023-02-18T12:21:29;99979.34;;;12.48;47.59
62201;BME280;48197;42.732;27.192;2023-02-18T12:24:41;99972.84;;;12.65;47.38
62201;BME280;48197;42.732;27.192;2023-02-18T12:26:57;99967.59;;;12.75;46.93
62201;BME280;48197;42.732;27.192;2023-02-18T12:39:57;99956.81;;;13.15;46.72
62201;BME280;48197;42.732;27.192;2023-02-18T12:42:34;99957.72;;;13.04;46.36
62201;BME280;48197;42.732;27.192;2023-02-18T12:55:35;99950.28;;;12.98;47.60
62201;BME280;48197;42.732;27.192;2023-02-18T12:58:11;99946.66;;;13.01;47.62
62201;BME280;48197;42.732;27.192;2023-02-18T13:08:37;99932.78;;;13.01;46.43
62201;BME280;48197;42.732;27.192;2023-02-18T13:11:56;99938.72;;;13.03;46.51
62201;BME280;48197;42.732;27.192;2023-02-18T13:14:03;99939.56;;;13.00;46.20
62201;BME280;48197;42.732;27.192;2023-02-18T13:16:35;99935.63;;;12.97;45.68
62201;BME280;48197;42.732;27.192;2023-02-18T13:21:42;99924.19;;;12.92;45.85
62201;BME280;48197;42.732;27.192;2023-02-18T13:24:13;99933.72;;;12.91;45.90
62201;BME280;48197;42.732;27.192;2023-02-18T13:26:42;99929.41;;;12.86;45.95
62201;BME280;48197;42.732;27.192;2023-02-18T13:39:30;99933.16;;;13.03;46.00
62201;BME280;48197;42.732;27.192;2023-02-18T13:47:39;99916.84;;;13.08;45.58
62201;BME280;48197;42.732;27.192;2023-02-18T13:50:32;99913.31;;;13.08;45.31
62201;BME280;48197;42.732;27.192;2023-02-18T13:58:15;99885.38;;;12.92;45.74
62201;BME280;48197;42.732;27.192;2023-02-18T14:00:46;99890.16;;;12.87;45.72
62201;BME280;48197;42.732;27.192;2023-02-18T14:03:30;99885.88;;;12.83;46.11
62201;BME280;48197;42.732;27.192;2023-02-18T14:06:26;99880.38;;;12.79;45.95
62201;BME280;48197;42.732;27.192;2023-02-18T14:14:36;99880.16;;;12.63;46.44
62201;BME280;48197;42.732;27.192;2023-02-18T14:22:58;99871.72;;;12.39;47.07
62201;BME280;48197;42.732;27.192;2023-02-18T14:25:36;99858.34;;;12.34;46.93
62201;BME280;48197;42.732;27.192;2023-02-18T14:28:36;99856.41;;;12.31;47.41
62201;BME280;48197;42.732;27.192;2023-02-18T14:30:50;99847.38;;;12.23;47.75
62201;BME280;48197;42.732;27.192;2023-02-18T14:33:18;99853.31;;;12.22;47.78
62201;BME280;48197;42.732;27.192;2023-02-18T14:36:21;99847.84;;;12.15;48.27
62201;BME280;48197;42.732;27.192;2023-02-18T14:38:59;99844.78;;;12.05;48.37
62201;BME280;48197;42.732;27.192;2023-02-18T14:41:30;99849.59;;;11.98;48.78
62201;BME280;48197;42.732;27.192;2023-02-18T15:01:27;99854.97;;;11.18;51.60
62201;BME280;48197;42.732;27.192;2023-02-18T15:03:55;99854.25;;;11.07;52.10
62201;BME280;48197;42.732;27.192;2023-02-18T15:06:22;99856.72;;;10.91;52.72
62201;BME280;48197;42.732;27.192;2023-02-18T15:08:49;99857.22;;;10.71;53.23
62201;BME280;48197;42.732;27.192;2023-02-18T15:11:16;99854.13;;;10.58;53.99
62201;BME280;48197;42.732;27.192;2023-02-18T15:13:44;99855.69;;;10.63;53.89
62201;BME280;48197;42.732;27.192;2023-02-18T15:16:18;99852.81;;;10.85;53.29
62201;BME280;48197;42.732;27.192;2023-02-18T15:18:48;99849.47;;;11.11;52.63
62201;BME280;48197;42.732;27.192;2023-02-18T15:21:34;99856.53;;;11.23;52.49
62201;BME280;48197;42.732;27.192;2023-02-18T15:24:06;99851.38;;;11.21;52.63
62201;BME280;48197;42.732;27.192;2023-02-18T15:26:35;99846.72;;;11.11;53.12
62201;BME280;48197;42.732;27.192;2023-02-18T15:29:11;99847.53;;;11.04;53.51
62201;BME280;48197;42.732;27.192;2023-02-18T15:31:57;99849.25;;;10.84;54.21
62201;BME280;48197;42.732;27.192;2023-02-18T15:36:53;99848.59;;;10.58;54.90
62201;BME280;48197;42.732;27.192;2023-02-18T15:39:21;99847.44;;;10.52;55.16
62201;BME280;48197;42.732;27.192;2023-02-18T15:42:11;99848.22;;;10.49;55.77
62201;BME280;48197;42.732;27.192;2023-02-18T15:44:34;99853.75;;;10.49;55.62
62201;BME280;48197;42.732;27.192;2023-02-18T15:47:05;99849.78;;;10.54;55.68
62201;BME280;48197;42.732;27.192;2023-02-18T15:49:57;99850.59;;;10.51;56.04
62201;BME280;48197;42.732;27.192;2023-02-18T15:52:25;99854.91;;;10.55;55.82
62201;BME280;48197;42.732;27.192;2023-02-18T15:54:53;99855.22;;;10.75;55.68
62201;BME280;48197;42.732;27.192;2023-02-18T15:57:21;99850.44;;;10.87;55.01
62201;BME280;48197;42.732;27.192;2023-02-18T16:03:23;99852.53;;;10.57;56.27
62201;BME280;48197;42.732;27.192;2023-02-18T16:05:43;99849.84;;;10.39;57.34
62201;BME280;48197;42.732;27.192;2023-02-18T16:08:13;99849.47;;;10.34;57.94
62201;BME280;48197;42.732;27.192;2023-02-18T16:10:47;99853.44;;;10.29;58.25
62201;BME280;48197;42.732;27.192;2023-02-18T16:13:15;99843.09;;;10.48;57.36
62201;BME280;48197;42.732;27.192;2023-02-18T16:15:43;99846.22;;;10.57;57.04
62201;BME280;48197;42.732;27.192;2023-02-18T16:18:24;99845.78;;;10.62;57.16
62201;BME280;48197;42.732;27.192;2023-02-18T16:21:01;99851.69;;;10.71;56.50
62201;BME280;48197;42.732;27.192;2023-02-18T16:23:33;99842.13;;;10.83;55.93
62201;BME280;48197;42.732;27.192;2023-02-18T16:26:15;99851.97;;;10.91;55.51
62201;BME280;48197;42.732;27.192;2023-02-18T16:28:48;99847.28;;;10.85;55.67
62201;BME280;48197;42.732;27.192;2023-02-18T16:31:15;99850.81;;;10.81;56.05
62201;BME280;48197;42.732;27.192;2023-02-18T16:33:42;99859.19;;;10.71;56.76
62201;BME280;48197;42.732;27.192;2023-02-18T16:36:11;99861.59;;;10.58;57.48
62201;BME280;48197;42.732;27.192;2023-02-18T16:38:40;99853.25;;;10.76;57.65
62201;BME280;48197;42.732;27.192;2023-02-18T16:41:07;99864.19;;;11.01;57.45
62201;BME280;48197;42.732;27.192;2023-02-18T16:43:34;99858.22;;;11.06;57.97
62201;BME280;48197;42.732;27.192;2023-02-18T16:46:06;99864.91;;;11.05;58.53
62201;BME280;48197;42.732;27.192;2023-02-18T16:48:37;99859.50;;;10.87;59.66
62201;BME280;48197;42.732;27.192;2023-02-18T16:51:08;99863.09;;;10.80;60.74
62201;BME280;48197;42.732;27.192;2023-02-18T16:53:36;99862.22;;;10.94;60.37
62201;BME280;48197;42.732;27.192;2023-02-18T16:56:03;99857.50;;;10.88;61.33
62201;BME280;48197;42.732;27.192;2023-02-18T16:58:29;99861.88;;;10.81;61.68
62201;BME280;48197;42.732;27.192;2023-02-18T17:00:56;99855.97;;;10.83;62.28
62201;BME280;48197;42.732;27.192;2023-02-18T17:03:25;99862.16;;;11.05;61.79
62201;BME280;48197;42.732;27.192;2023-02-18T17:05:52;99857.44;;;11.02;61.98
62201;BME280;48197;42.732;27.192;2023-02-18T17:08:20;99857.88;;;10.93;62.63
62201;BME280;48197;42.732;27.192;2023-02-18T17:10:52;99858.25;;;10.99;62.74
62201;BME280;48197;42.732;27.192;2023-02-18T17:13:28;99860.72;;;10.86;63.35
62201;BME280;48197;42.732;27.192;2023-02-18T17:15:56;99855.19;;;10.79;64.03
62201;BME280;48197;42.732;27.192;2023-02-18T17:18:36;99853.19;;;10.83;64.78
62201;BME280;48197;42.732;27.192;2023-02-18T17:21:02;99856.75;;;10.83;64.55
62201;BME280;48197;42.732;27.192;2023-02-18T17:23:29;99844.91;;;10.79;64.67
62201;BME280;48197;42.732;27.192;2023-02-18T17:25:56;99844.06;;;10.97;64.89
62201;BME280;48197;42.732;27.192;2023-02-18T17:28:22;99839.09;;;11.30;64.80
62201;BME280;48197;42.732;27.192;2023-02-18T17:30:52;99840.06;;;11.57;64.54
62201;BME280;48197;42.732;27.192;2023-02-18T17:33:21;99826.88;;;11.72;65.37
62201;BME280;48197;42.732;27.192;2023-02-18T17:35:48;99838.69;;;11.80;65.43
62201;BME280;48197;42.732;27.192;2023-02-18T17:38:16;99836.25;;;11.85;66.52
62201;BME280;48197;42.732;27.192;2023-02-18T17:40:43;99825.84;;;12.00;66.47
62201;BME280;48197;42.732;27.192;2023-02-18T17:43:11;99824.72;;;12.29;66.05
62201;BME280;48197;42.732;27.192;2023-02-18T17:45:51;99821.66;;;12.54;65.47
62201;BME280;48197;42.732;27.192;2023-02-18T17:48:18;99818.13;;;12.53;64.98
62201;BME280;48197;42.732;27.192;2023-02-18T17:50:45;99818.25;;;12.42;65.19
62201;BME280;48197;42.732;27.192;2023-02-18T17:53:11;99815.06;;;12.44;65.42
62201;BME280;48197;42.732;27.192;2023-02-18T17:55:39;99814.28;;;12.74;64.56
62201;BME280;48197;42.732;27.192;2023-02-18T17:58:06;99804.34;;;13.31;62.03
62201;BME280;48197;42.732;27.192;2023-02-18T18:00:33;99805.56;;;13.77;60.17
62201;BME280;48197;42.732;27.192;2023-02-18T18:03:00;99812.09;;;14.11;58.30
62201;BME280;48197;42.732;27.192;2023-02-18T18:05:30;99811.38;;;14.26;57.28
62201;BME280;48197;42.732;27.192;2023-02-18T18:07:58;99811.31;;;14.30;56.74
62201;BME280;48197;42.732;27.192;2023-02-18T18:10:26;99812.75;;;14.38;56.54
62201;BME280;48197;42.732;27.192;2023-02-18T18:12:57;99818.31;;;14.38;56.13
62201;BME280;48197;42.732;27.192;2023-02-18T18:15:26;99821.09;;;14.38;55.84
62201;BME280;48197;42.732;27.192;2023-02-18T18:17:53;99819.22;;;14.52;55.38
62201;BME280;48197;42.732;27.192;2023-02-18T18:20:20;99825.78;;;14.41;55.35
62201;BME280;48197;42.732;27.192;2023-02-18T18:22:48;99822.06;;;14.48;55.02
62201;BME280;48197;42.732;27.192;2023-02-18T18:25:22;99823.09;;;14.58;54.68
62201;BME280;48197;42.732;27.192;2023-02-18T18:27:49;99823.56;;;14.53;55.02
62201;BME280;48197;42.732;27.192;2023-02-18T18:30:18;99823.00;;;14.41;55.42
62201;BME280;48197;42.732;27.192;2023-02-18T18:32:46;99815.78;;;14.44;55.04
62201;BME280;48197;42.732;27.192;2023-02-18T18:35:26;99813.53;;;14.39;55.29
62201;BME280;48197;42.732;27.192;2023-02-18T18:37:53;99814.38;;;14.36;55.28
62201;BME280;48197;42.732;27.192;2023-02-18T18:40:20;99814.22;;;14.23;56.01
62201;BME280;48197;42.732;27.192;2023-02-18T18:42:47;99823.94;;;14.15;56.01
62201;BME280;48197;42.732;27.192;2023-02-18T18:48:10;99829.38;;;13.98;56.46
62201;BME280;48197;42.732;27.192;2023-02-18T18:50:37;99835.63;;;13.82;57.22
62201;BME280;48197;42.732;27.192;2023-02-18T18:53:05;99847.19;;;14.01;56.33
62201;BME280;48197;42.732;27.192;2023-02-18T18:55:33;99842.00;;;14.03;56.16
62201;BME280;48197;42.732;27.192;2023-02-18T18:58:00;99843.94;;;13.82;56.88
62201;BME280;48197;42.732;27.192;2023-02-18T19:00:31;99847.91;;;13.85;56.54
62201;BME280;48197;42.732;27.192;2023-02-18T19:02:58;99840.16;;;13.96;56.14
62201;BME280;48197;42.732;27.192;2023-02-18T19:05:27;99842.19;;;13.92;56.25
62201;BME280;48197;42.732;27.192;2023-02-18T19:07:54;99840.88;;;13.77;56.58
62201;BME280;48197;42.732;27.192;2023-02-18T19:10:20;99842.69;;;13.87;56.54
62201;BME280;48197;42.732;27.192;2023-02-18T19:12:47;99835.41;;;13.93;56.23
62201;BME280;48197;42.732;27.192;2023-02-18T19:15:15;99835.34;;;13.77;56.48
62201;BME280;48197;42.732;27.192;2023-02-18T19:17:48;99841.97;;;13.83;56.34
62201;BME280;48197;42.732;27.192;2023-02-18T19:20:31;99826.56;;;13.78;56.06
62201;BME280;48197;42.732;27.192;2023-02-18T19:22:58;99833.28;;;13.81;56.28
62201;BME280;48197;42.732;27.192;2023-02-18T19:25:24;99832.56;;;13.77;56.00
62201;BME280;48197;42.732;27.192;2023-02-18T19:27:51;99830.97;;;13.76;56.35
62201;BME280;48197;42.732;27.192;2023-02-18T19:30:19;99833.81;;;13.72;56.28
62201;BME280;48197;42.732;27.192;2023-02-18T19:32:51;99830.16;;;13.55;56.38
62201;BME280;48197;42.732;27.192;2023-02-18T19:35:18;99833.88;;;13.68;56.49
62201;BME280;48197;42.732;27.192;2023-02-18T19:37:44;99842.63;;;13.67;56.17
62201;BME280;48197;42.732;27.192;2023-02-18T19:40:13;99839.66;;;13.54;56.61
62201;BME280;48197;42.732;27.192;2023-02-18T19:42:40;99847.88;;;13.38;57.15
62201;BME280;48197;42.732;27.192;2023-02-18T19:45:07;99845.28;;;13.23;57.22
62201;BME280;48197;42.732;27.192;2023-02-18T19:47:34;99848.06;;;13.23;57.51
62201;BME280;48197;42.732;27.192;2023-02-18T19:50:01;99841.44;;;13.44;56.78
62201;BME280;48197;42.732;27.192;2023-02-18T19:52:27;99841.09;;;13.39;56.85
62201;BME280;48197;42.732;27.192;2023-02-18T19:54:54;99845.97;;;13.31;56.89
62201;BME280;48197;42.732;27.192;2023-02-18T19:57:21;99846.44;;;13.26;56.95
62201;BME280;48197;42.732;27.192;2023-02-18T19:59:48;99847.22;;;13.26;57.10
62201;BME280;48197;42.732;27.192;2023-02-18T20:02:18;99847.66;;;13.25;57.40
62201;BME280;48197;42.732;27.192;2023-02-18T20:04:45;99846.84;;;12.97;57.96
62201;BME280;48197;42.732;27.192;2023-02-18T20:07:12;99849.41;;;12.50;59.17
62201;BME280;48197;42.732;27.192;2023-02-18T20:10:15;99844.81;;;12.02;60.37
62201;BME280;48197;42.732;27.192;2023-02-18T20:12:42;99850.63;;;11.70;61.60
62201;BME280;48197;42.732;27.192;2023-02-18T20:15:08;99852.41;;;11.45;62.61
62201;BME280;48197;42.732;27.192;2023-02-18T20:17:36;99849.31;;;11.36;63.40
62201;BME280;48197;42.732;27.192;2023-02-18T20:20:02;99849.44;;;11.71;63.33
62201;BME280;48197;42.732;27.192;2023-02-18T20:22:28;99837.91;;;12.21;61.94
62201;BME280;48197;42.732;27.192;2023-02-18T20:24:54;99848.94;;;12.59;60.09
62201;BME280;48197;42.732;27.192;2023-02-18T20:27:32;99847.19;;;12.72;59.32
62201;BME280;48197;42.732;27.192;2023-02-18T20:29:58;99841.72;;;12.65;59.56
62201;BME280;48197;42.732;27.192;2023-02-18T20:32:24;99845.84;;;12.53;59.75
62201;BME280;48197;42.732;27.192;2023-02-18T20:34:51;99835.88;;;12.25;60.70
62201;BME280;48197;42.732;27.192;2023-02-18T20:37:18;99832.88;;;12.09;61.83
62201;BME280;48197;42.732;27.192;2023-02-18T20:39:45;99834.53;;;11.99;61.79
62201;BME280;48197;42.732;27.192;2023-02-18T20:42:11;99828.41;;;11.77;62.97
62201;BME280;48197;42.732;27.192;2023-02-18T20:44:38;99831.53;;;11.82;63.13
62201;BME280;48197;42.732;27.192;2023-02-18T20:47:04;99835.47;;;11.89;62.87
62201;BME280;48197;42.732;27.192;2023-02-18T20:49:30;99836.63;;;11.84;62.73
62201;BME280;48197;42.732;27.192;2023-02-18T20:51:59;99829.53;;;11.87;62.89
62201;BME280;48197;42.732;27.192;2023-02-18T20:54:25;99833.94;;;11.80;62.78
62201;BME280;48197;42.732;27.192;2023-02-18T20:56:54;99829.25;;;11.70;63.38
62201;BME280;48197;42.732;27.192;2023-02-18T20:59:21;99827.38;;;11.60;63.54
62201;BME280;48197;42.732;27.192;2023-02-18T21:01:47;99832.22;;;11.49;63.70
62201;BME280;48197;42.732;27.192;2023-02-18T21:04:15;99832.63;;;11.47;63.97
62201;BME280;48197;42.732;27.192;2023-02-18T21:06:42;99823.16;;;11.44;64.35
62201;BME280;48197;42.732;27.192;2023-02-18T21:09:10;99826.75;;;11.41;64.14
62201;BME280;48197;42.732;27.192;2023-02-18T21:11:37;99828.41;;;11.28;64.62
62201;BME280;48197;42.732;27.192;2023-02-18T21:14:04;99823.72;;;11.21;65.22
62201;BME280;48197;42.732;27.192;2023-02-18T21:16:31;99822.25;;;11.10;65.50
62201;BME280;48197;42.732;27.192;2023-02-18T21:19:16;99832.22;;;10.93;65.88
62201;BME280;48197;42.732;27.192;2023-02-18T21:21:56;99835.84;;;10.79;66.97
62201;BME280;48197;42.732;27.192;2023-02-18T21:24:22;99837.47;;;10.69;67.25
62201;BME280;48197;42.732;27.192;2023-02-18T21:26:49;99841.88;;;10.56;68.00
62201;BME280;48197;42.732;27.192;2023-02-18T21:29:23;99836.03;;;10.36;69.34
62201;BME280;48197;42.732;27.192;2023-02-18T21:31:49;99840.38;;;10.26;70.32
62201;BME280;48197;42.732;27.192;2023-02-18T21:34:16;99838.78;;;10.32;70.03
62201;BME280;48197;42.732;27.192;2023-02-18T21:36:42;99836.84;;;10.33;70.44
62201;BME280;48197;42.732;27.192;2023-02-18T21:39:09;99839.16;;;10.45;70.38
62201;BME280;48197;42.732;27.192;2023-02-18T21:41:36;99835.94;;;10.57;69.32
62201;BME280;48197;42.732;27.192;2023-02-18T21:44:03;99829.25;;;10.55;69.37
62201;BME280;48197;42.732;27.192;2023-02-18T21:46:30;99839.97;;;10.46;69.59
62201;BME280;48197;42.732;27.192;2023-02-18T21:48:57;99841.44;;;10.65;69.75
62201;BME280;48197;42.732;27.192;2023-02-18T21:51:34;99837.50;;;10.62;68.97
62201;BME280;48197;42.732;27.192;2023-02-18T21:54:21;99835.59;;;10.41;69.33
62201;BME280;48197;42.732;27.192;2023-02-18T21:56:48;99828.94;;;10.31;69.63
62201;BME280;48197;42.732;27.192;2023-02-18T21:59:15;99826.97;;;10.17;70.56
62201;BME280;48197;42.732;27.192;2023-02-18T22:01:41;99825.44;;;10.09;71.15
62201;BME280;48197;42.732;27.192;2023-02-18T22:04:08;99825.84;;;10.08;71.51
62201;BME280;48197;42.732;27.192;2023-02-18T22:06:35;99830.13;;;10.23;70.88
62201;BME280;48197;42.732;27.192;2023-02-18T22:09:02;99823.81;;;10.22;70.98
62201;BME280;48197;42.732;27.192;2023-02-18T22:11:28;99826.22;;;10.06;71.11
62201;BME280;48197;42.732;27.192;2023-02-18T22:13:55;99828.63;;;9.93;71.78
62201;BME280;48197;42.732;27.192;2023-02-18T22:16:21;99827.84;;;9.82;72.42
62201;BME280;48197;42.732;27.192;2023-02-18T22:18:48;99829.44;;;9.76;72.84
62201;BME280;48197;42.732;27.192;2023-02-18T22:21:15;99829.44;;;9.61;73.40
62201;BME280;48197;42.732;27.192;2023-02-18T22:23:41;99836.53;;;9.55;74.30
62201;BME280;48197;42.732;27.192;2023-02-18T22:26:08;99833.00;;;9.51;73.86
62201;BME280;48197;42.732;27.192;2023-02-18T22:28:35;99828.66;;;9.68;74.17
62201;BME280;48197;42.732;27.192;2023-02-18T22:31:08;99826.66;;;9.87;74.19
62201;BME280;48197;42.732;27.192;2023-02-18T22:33:35;99839.28;;;9.91;73.88
62201;BME280;48197;42.732;27.192;2023-02-18T22:36:03;99824.28;;;9.92;73.72
62201;BME280;48197;42.732;27.192;2023-02-18T22:38:31;99829.81;;;9.92;74.28
62201;BME280;48197;42.732;27.192;2023-02-18T22:41:02;99829.81;;;9.92;73.81
62201;BME280;48197;42.732;27.192;2023-02-18T22:43:28;99827.84;;;9.93;74.31
62201;BME280;48197;42.732;27.192;2023-02-18T22:45:55;99829.78;;;9.96;74.10
62201;BME280;48197;42.732;27.192;2023-02-18T22:48:21;99842.00;;;9.98;73.59
62201;BME280;48197;42.732;27.192;2023-02-18T22:50:48;99838.09;;;10.03;74.15
62201;BME280;48197;42.732;27.192;2023-02-18T22:53:14;99840.81;;;10.10;73.76
62201;BME280;48197;42.732;27.192;2023-02-18T22:55:41;99839.63;;;10.15;73.00
62201;BME280;48197;42.732;27.192;2023-02-18T22:58:07;99832.53;;;10.14;73.10
62201;BME280;48197;42.732;27.192;2023-02-18T23:00:34;99838.06;;;10.10;72.89
62201;BME280;48197;42.732;27.192;2023-02-18T23:03:00;99837.66;;;10.05;72.95
62201;BME280;48197;42.732;27.192;2023-02-18T23:05:26;99842.00;;;10.09;72.79
62201;BME280;48197;42.732;27.192;2023-02-18T23:07:53;99836.09;;;10.07;72.28
62201;BME280;48197;42.732;27.192;2023-02-18T23:10:21;99834.91;;;9.94;72.89
62201;BME280;48197;42.732;27.192;2023-02-18T23:12:48;99827.84;;;9.82;73.11
62201;BME280;48197;42.732;27.192;2023-02-18T23:15:14;99836.94;;;9.72;73.31
62201;BME280;48197;42.732;27.192;2023-02-18T23:17:41;99835.34;;;9.74;73.76
62201;BME280;48197;42.732;27.192;2023-02-18T23:20:08;99832.59;;;9.74;73.29
62201;BME280;48197;42.732;27.192;2023-02-18T23:22:34;99825.09;;;9.71;74.00
62201;BME280;48197;42.732;27.192;2023-02-18T23:25:02;99821.53;;;9.74;73.80
62201;BME280;48197;42.732;27.192;2023-02-18T23:27:29;99829.41;;;9.83;73.40
62201;BME280;48197;42.732;27.192;2023-02-18T23:29:56;99827.44;;;9.94;72.50
62201;BME280;48197;42.732;27.192;2023-02-18T23:32:22;99828.97;;;10.02;71.51
62201;BME280;48197;42.732;27.192;2023-02-18T23:34:52;99830.94;;;10.20;69.70
62201;BME280;48197;42.732;27.192;2023-02-18T23:37:18;99827.75;;;10.29;67.66
62201;BME280;48197;42.732;27.192;2023-02-18T23:40:04;99822.63;;;10.23;67.35
62201;BME280;48197;42.732;27.192;2023-02-18T23:42:31;99828.97;;;10.17;66.71
62201;BME280;48197;42.732;27.192;2023-02-18T23:44:58;99817.94;;;10.10;65.91
62201;BME280;48197;42.732;27.192;2023-02-18T23:47:24;99824.28;;;9.99;66.02
62201;BME280;48197;42.732;27.192;2023-02-18T23:49:51;99820.34;;;9.90;65.68
62201;BME280;48197;42.732;27.192;2023-02-18T23:52:18;99816.81;;;9.75;66.13
62201;BME280;48197;42.732;27.192;2023-02-18T23:54:44;99827.47;;;9.66;67.03
62201;BME280;48197;42.732;27.192;2023-02-18T23:57:11;99823.91;;;9.58;66.80
62201;BME280;48197;42.732;27.192;2023-02-18T23:59:37;99832.59;;;9.49;67.31
